Time;durP1;ratioP1;P1;durP2;ratioP2;P2;SDS_P1;SDS_P2;PMS_P1;PMS_P2;Temp;Humidity;BMP_temperature;BMP_pressure;BME280_temperature;BME280_humidity;BME280_pressure;Samples;Min_cycle;Max_cycle;Signal;HPM_P1;HPM_P2
2021/09/21 00:03:37;;;;;;;7.18;6.47;;;;;;;10.80;86.03;100937.84;10379704;28;20361;-73
2021/09/21 00:08:39;;;;;;;6.35;5.85;;;;;;;11.06;83.82;100938.22;10379793;28;20042;-73
2021/09/21 00:13:41;;;;;;;6.45;5.32;;;;;;;11.20;81.64;100939.72;10380306;28;20108;-72
2021/09/21 00:18:42;;;;;;;6.10;5.60;;;;;;;11.00;82.33;100935.72;10382999;28;20050;-72
2021/09/21 00:23:44;;;;;;;6.10;5.60;;;;;;;10.78;84.52;100932.63;10384285;28;20042;-72
2021/09/21 00:28:47;;;;;;;6.88;6.38;;;;;;;10.64;86.03;100937.28;10379856;28;20500;-72
2021/09/21 00:38:50;;;;;;;6.93;6.32;;;;;;;10.64;84.85;100931.16;10378533;28;20049;-72
2021/09/21 00:43:52;;;;;;;7.13;6.53;;;;;;;10.57;86.15;100933.00;10379247;28;20054;-72
2021/09/21 00:48:53;;;;;;;6.43;5.90;;;;;;;10.77;85.08;100932.66;10378609;28;20054;-72
2021/09/21 00:53:55;;;;;;;6.68;6.10;;;;;;;10.68;85.77;100933.69;10361418;28;20096;-72
2021/09/21 00:58:56;;;;;;;6.05;5.55;;;;;;;10.57;86.56;100933.88;10378600;28;20052;-72
2021/09/21 01:04:00;;;;;;;7.18;5.63;;;;;;;10.81;84.85;100931.72;10376202;28;20096;-72
2021/09/21 01:09:02;;;;;;;6.70;6.20;;;;;;;10.68;85.35;100930.19;10360199;28;20057;-72
2021/09/21 01:14:04;;;;;;;7.55;6.88;;;;;;;10.51;86.44;100930.50;10392972;22;20037;-67
2021/09/21 01:19:05;;;;;;;6.40;5.90;;;;;;;10.43;86.89;100935.88;10415331;28;20053;-67
2021/09/21 01:24:08;;;;;;;7.68;6.25;;;;;;;10.63;85.86;100935.53;10415078;28;20049;-67
2021/09/21 01:29:10;;;;;;;6.57;6.07;;;;;;;10.92;83.75;100929.75;10414951;28;20114;-68
2021/09/21 01:34:18;;;;;;;6.18;5.68;;;;;;;10.72;84.41;100937.16;10414692;28;20045;-68
2021/09/21 01:39:19;;;;;;;6.70;6.20;;;;;;;10.58;85.87;100943.50;10398064;28;20049;-68
2021/09/21 01:44:21;;;;;;;6.43;6.00;;;;;;;10.71;84.77;100943.28;10414367;28;20054;-68
2021/09/21 01:49:23;;;;;;;7.25;6.68;;;;;;;11.00;81.13;100943.63;10414763;28;20572;-68
2021/09/21 01:54:45;;;;;;;6.88;6.28;;;;;;;11.00;80.40;100953.28;10414659;28;20045;-68
2021/09/21 01:59:46;;;;;;;7.13;6.53;;;;;;;10.94;80.92;100950.78;10414187;28;20125;-68
2021/09/21 02:04:48;;;;;;;7.28;6.57;;;;;;;10.57;83.56;100954.03;10414233;28;20483;-68
2021/09/21 02:09:50;;;;;;;7.10;6.53;;;;;;;10.62;83.21;100944.31;10414569;28;20493;-68
2021/09/21 02:14:51;;;;;;;7.03;6.45;;;;;;;10.46;85.32;100956.00;10413114;28;20099;-69
2021/09/21 02:19:53;;;;;;;6.88;6.38;;;;;;;10.35;86.30;100961.41;10413630;28;20107;-68
2021/09/21 02:24:56;;;;;;;7.13;6.53;;;;;;;10.38;86.30;100950.84;10413328;28;20095;-68
2021/09/21 02:29:58;;;;;;;7.00;6.50;;;;;;;10.35;86.67;100951.75;10414453;28;20613;-68
2021/09/21 02:34:59;;;;;;;7.32;6.72;;;;;;;10.78;84.20;100943.16;10413250;28;20052;-68
2021/09/21 02:40:01;;;;;;;7.47;6.97;;;;;;;10.73;84.08;100950.25;10413719;28;20104;-68
2021/09/21 02:45:07;;;;;;;11.30;6.75;;;;;;;10.89;83.42;100945.59;10413120;28;20128;-68
2021/09/21 02:50:09;;;;;;;7.13;6.53;;;;;;;10.59;85.70;100944.38;10413786;28;20045;-68
2021/09/21 02:55:11;;;;;;;8.18;7.53;;;;;;;10.46;87.02;100948.97;10413518;28;20045;-68
2021/09/21 03:00:16;;;;;;;8.35;6.25;;;;;;;10.46;86.91;100956.84;10412808;28;20046;-68
2021/09/21 03:05:23;;;;;;;7.20;6.60;;;;;;;10.51;86.10;100956.78;10413250;28;20049;-68
2021/09/21 03:10:38;;;;;;;7.18;6.68;;;;;;;10.49;86.02;100962.06;10412967;28;20054;-68
2021/09/21 03:21:00;;;;;;;8.07;6.50;;;;;;;10.57;85.07;100965.41;10413189;28;20113;-68
2021/09/21 03:26:02;;;;;;;8.43;7.78;;;;;;;10.39;86.77;100976.25;10412491;28;20107;-68
2021/09/21 03:31:03;;;;;;;5.95;5.55;;;;;;;10.29;88.15;100986.03;10385500;28;20469;-68
2021/09/21 03:36:05;;;;;;;7.32;6.82;;;;;;;10.33;88.37;100998.22;10419744;28;20107;-68
2021/09/21 03:41:07;;;;;;;8.38;7.68;;;;;;;10.28;88.63;101005.31;10419098;28;20391;-68
2021/09/21 03:46:08;;;;;;;7.65;7.05;;;;;;;10.33;88.73;101008.75;10419588;28;20045;-69
2021/09/21 03:51:10;;;;;;;7.65;6.95;;;;;;;10.31;89.08;101014.91;10419459;28;20545;-68
2021/09/21 03:56:12;;;;;;;7.00;6.40;;;;;;;10.34;89.10;101021.00;10401098;28;20053;-68
2021/09/21 04:01:13;;;;;;;6.95;6.38;;;;;;;10.38;88.76;101013.94;10418418;28;20084;-68
2021/09/21 04:06:15;;;;;;;8.50;7.78;;;;;;;10.63;86.60;101016.19;10418538;28;20406;-68
2021/09/21 04:11:17;;;;;;;8.65;7.85;;;;;;;10.85;83.51;101014.94;10418016;28;20045;-68
2021/09/21 04:16:18;;;;;;;8.18;7.47;;;;;;;10.61;83.88;101008.31;10401708;28;20475;-68
2021/09/21 04:21:20;;;;;;;8.68;7.47;;;;;;;10.34;87.48;101017.50;10399880;28;20045;-68
2021/09/21 04:26:22;;;;;;;9.50;8.60;;;;;;;10.26;87.74;101019.38;10418129;28;20053;-67
2021/09/21 04:31:25;;;;;;;8.77;8.18;;;;;;;10.22;88.23;101030.78;10417265;28;20037;-67
2021/09/21 04:36:27;;;;;;;7.85;7.15;;;;;;;10.32;87.87;101024.56;10399660;28;20111;-67
2021/09/21 04:41:29;;;;;;;8.85;8.05;;;;;;;10.37;87.02;101027.97;10399942;28;20045;-68
2021/09/21 04:46:33;;;;;;;8.52;7.72;;;;;;;10.30;87.91;101023.69;10417161;28;20049;-68
2021/09/21 04:51:35;;;;;;;9.05;8.32;;;;;;;10.32;87.48;101027.19;10417529;28;20107;-67
2021/09/21 04:56:36;;;;;;;8.32;7.70;;;;;;;10.27;88.27;101026.34;10416510;28;20065;-68
2021/09/21 05:01:38;;;;;;;9.10;8.30;;;;;;;10.33;88.23;101037.66;10398385;28;20541;-68
2021/09/21 05:06:40;;;;;;;9.38;8.60;;;;;;;10.29;88.00;101042.97;10416341;28;20072;-67
2021/09/21 05:11:44;;;;;;;9.20;8.27;;;;;;;10.35;87.35;101038.50;10417181;28;20042;-69
2021/09/21 05:16:46;;;;;;;8.07;7.47;;;;;;;10.33;88.10;101047.31;10416547;28;20041;-68
2021/09/21 05:21:47;;;;;;;8.18;7.57;;;;;;;10.38;88.83;101052.50;10415408;28;20037;-67
2021/09/21 05:26:49;;;;;;;8.32;7.65;;;;;;;10.48;87.80;101048.81;10416142;28;20103;-67
2021/09/21 05:31:50;;;;;;;9.13;8.20;;;;;;;10.50;88.33;101044.44;10416539;28;20068;-67
2021/09/21 05:36:52;;;;;;;11.20;10.40;;;;;;;10.41;87.55;101045.44;10415128;28;20053;-67
2021/09/21 05:41:53;;;;;;;9.45;8.75;;;;;;;10.47;87.69;101053.22;10414871;28;20052;-68
2021/09/21 05:46:55;;;;;;;10.07;9.27;;;;;;;10.64;85.58;101057.34;10415518;28;20057;-68
2021/09/21 05:51:57;;;;;;;9.80;8.98;;;;;;;10.56;86.82;101057.47;10413793;28;20037;-68
2021/09/21 05:56:59;;;;;;;9.75;8.90;;;;;;;10.64;86.94;101079.25;10415273;28;20049;-67
2021/09/21 06:02:00;;;;;;;10.35;9.55;;;;;;;10.76;85.82;101075.59;10414515;28;20049;-68
2021/09/21 06:07:03;;;;;;;10.43;9.43;;;;;;;10.81;84.77;101089.53;10396849;28;20114;-68
2021/09/21 06:12:04;;;;;;;10.05;9.13;;;;;;;10.82;84.37;101091.25;10414109;28;20092;-68
2021/09/21 06:17:06;;;;;;;11.30;9.65;;;;;;;10.91;81.88;101090.22;10414169;28;20042;-68
2021/09/21 06:22:07;;;;;;;9.20;8.48;;;;;;;11.08;80.31;101090.81;10413809;28;20485;-67
2021/09/21 06:27:09;;;;;;;8.32;7.63;;;;;;;11.55;74.56;101089.09;10414482;28;20037;-68
2021/09/21 06:32:10;;;;;;;7.72;7.13;;;;;;;11.44;75.30;101101.59;10414230;28;20396;-68
2021/09/21 06:37:14;;;;;;;10.80;8.30;;;;;;;11.42;75.19;101091.09;10414450;28;20061;-68
2021/09/21 06:42:15;;;;;;;8.55;7.57;;;;;;;11.42;75.51;101103.38;10413837;28;20047;-67
2021/09/21 06:47:17;;;;;;;10.00;7.43;;;;;;;11.53;74.41;101110.19;10413392;28;20544;-68
2021/09/21 06:52:19;;;;;;;8.07;7.28;;;;;;;11.49;73.86;101121.66;10412690;28;20033;-67
2021/09/21 06:57:20;;;;;;;12.25;7.20;;;;;;;11.58;72.75;101116.22;10412919;28;20049;-66
2021/09/21 07:02:22;;;;;;;7.43;6.82;;;;;;;11.50;73.33;101126.03;10416869;28;20108;-67
2021/09/21 07:07:24;;;;;;;8.02;7.38;;;;;;;11.54;74.00;101134.75;10420528;28;20042;-67
2021/09/21 07:12:25;;;;;;;8.02;7.35;;;;;;;11.75;73.27;101120.31;10430140;22;20402;-75
2021/09/21 07:17:27;;;;;;;7.75;7.15;;;;;;;11.90;73.33;101133.22;10380587;28;20053;-75
2021/09/21 07:22:30;;;;;;;15.50;8.93;;;;;;;11.99;75.25;101138.31;10379619;28;20046;-75
2021/09/21 07:27:32;;;;;;;8.52;7.90;;;;;;;12.34;72.15;101141.97;10380922;28;20104;-74
2021/09/21 07:32:34;;;;;;;8.02;7.32;;;;;;;12.48;70.28;101132.00;10382212;28;20100;-76
2021/09/21 07:37:36;;;;;;;7.80;6.93;;;;;;;12.34;70.13;101144.63;10381235;28;20050;-75
2021/09/21 07:42:38;;;;;;;10.05;8.10;;;;;;;12.54;70.12;101152.13;10381368;28;20144;-74
2021/09/21 07:47:40;;;;;;;7.20;6.50;;;;;;;13.20;66.25;101143.53;10380868;28;20100;-74
2021/09/21 07:52:41;;;;;;;7.30;6.65;;;;;;;13.30;65.39;101152.97;10362638;28;20065;-75
2021/09/21 07:57:44;;;;;;;7.07;6.25;;;;;;;13.47;64.46;101163.13;10380046;28;20096;-76
2021/09/21 08:02:46;;;;;;;6.25;5.75;;;;;;;13.65;62.84;101174.09;10361834;28;20061;-74
2021/09/21 08:07:48;;;;;;;12.75;5.40;;;;;;;13.51;63.26;101187.69;10380598;28;20038;-75
2021/09/21 08:12:49;;;;;;;6.57;5.97;;;;;;;13.42;65.81;101191.41;10361540;28;20096;-74
2021/09/21 08:17:51;;;;;;;6.80;6.13;;;;;;;13.82;63.91;101183.31;10362436;28;20045;-75
2021/09/21 08:22:53;;;;;;;7.45;6.85;;;;;;;13.68;63.84;101188.13;10378909;28;20104;-75
2021/09/21 08:27:55;;;;;;;6.80;6.22;;;;;;;13.51;63.15;101200.88;10379033;28;20049;-74
2021/09/21 08:33:01;;;;;;;5.55;5.18;;;;;;;13.94;63.24;101205.91;10378642;28;20038;-74
2021/09/21 08:38:03;;;;;;;6.07;5.55;;;;;;;13.95;61.05;101202.38;10378447;28;20096;-75
2021/09/21 08:43:05;;;;;;;5.15;4.63;;;;;;;14.01;60.81;101207.47;10360567;28;20049;-75
2021/09/21 08:48:07;;;;;;;4.88;4.43;;;;;;;14.04;58.21;101219.75;10378069;28;20042;-75
2021/09/21 08:53:08;;;;;;;4.28;3.95;;;;;;;14.24;56.96;101211.25;10377737;28;20484;-76
2021/09/21 08:58:10;;;;;;;3.85;3.53;;;;;;;14.46;53.19;101209.72;10377388;28;20046;-74
2021/09/21 09:03:13;;;;;;;4.72;4.32;;;;;;;14.47;55.67;101210.59;10360207;28;20089;-74
2021/09/21 09:08:37;;;;;;;5.07;4.57;;;;;;;14.69;56.51;101200.28;10359890;28;20066;-75
2021/09/21 09:13:39;;;;;;;4.00;3.70;;;;;;;15.14;52.06;101211.25;10377675;28;20046;-74
2021/09/21 09:18:41;;;;;;;5.47;3.95;;;;;;;14.91;53.22;101201.34;10359807;28;20103;-74
2021/09/21 09:23:50;;;;;;;5.18;4.05;;;;;;;15.50;51.18;101206.53;10375380;28;20092;-75
2021/09/21 09:28:55;;;;;;;4.20;3.80;;;;;;;15.21;52.67;101209.25;10376197;28;20518;-74
2021/09/21 09:34:10;;;;;;;4.13;3.83;;;;;;;15.45;52.08;101202.25;10376414;28;20053;-74
2021/09/21 09:39:13;;;;;;;4.43;4.10;;;;;;;15.61;51.11;101193.75;10377723;28;20041;-74
2021/09/21 09:44:20;;;;;;;4.47;4.03;;;;;;;15.04;53.81;101201.84;10376074;28;20038;-75
2021/09/21 09:49:27;;;;;;;4.88;4.53;;;;;;;15.45;51.50;101197.84;10376804;28;20046;-75
2021/09/21 09:54:30;;;;;;;4.40;4.00;;;;;;;15.77;52.43;101203.88;10378172;28;20046;-74
2021/09/21 09:59:32;;;;;;;4.45;3.70;;;;;;;16.07;51.73;101199.25;10359978;28;20148;-75
2021/09/21 10:04:34;;;;;;;3.40;3.10;;;;;;;15.77;53.28;101207.41;10376448;28;20045;-76
2021/09/21 10:09:37;;;;;;;6.97;3.78;;;;;;;15.82;51.10;101196.63;10359651;28;20056;-73
2021/09/21 10:14:40;;;;;;;5.07;4.20;;;;;;;15.70;51.97;101182.00;10376664;28;20411;-76
2021/09/21 10:19:41;;;;;;;4.18;3.42;;;;;;;16.18;51.89;101186.47;10376756;28;20496;-74
2021/09/21 10:24:49;;;;;;;4.72;4.10;;;;;;;16.61;49.25;101183.09;10376037;28;20096;-75
2021/09/21 10:30:00;;;;;;;6.10;5.03;;;;;;;16.85;48.64;101175.97;10375439;28;20045;-75
2021/09/21 10:35:09;;;;;;;4.18;3.85;;;;;;;16.07;50.36;101178.94;10358416;28;20038;-75
2021/09/21 10:40:11;;;;;;;4.90;4.35;;;;;;;16.12;52.32;101176.09;10384249;28;20042;-75
2021/09/21 10:45:23;;;;;;;4.15;3.83;;;;;;;15.94;52.09;101182.94;10365515;28;20045;-75
2021/09/21 10:50:25;;;;;;;5.60;5.10;;;;;;;15.64;52.21;101171.63;10384451;28;20108;-74
2021/09/21 10:55:34;;;;;;;5.82;5.32;;;;;;;16.75;50.40;101169.31;10383109;28;20038;-73
2021/09/21 11:00:35;;;;;;;6.93;6.43;;;;;;;16.21;51.45;101172.25;10385216;28;20187;-74
2021/09/21 11:05:37;;;;;;;6.05;5.45;;;;;;;16.46;53.43;101167.72;10365808;28;20096;-74
2021/09/21 11:10:44;;;;;;;5.95;4.78;;;;;;;17.25;51.31;101170.84;10382853;28;20504;-75
2021/09/21 11:15:46;;;;;;;6.65;5.38;;;;;;;16.80;48.22;101177.94;10373302;28;20054;-75
2021/09/21 11:20:54;;;;;;;4.72;4.43;;;;;;;16.44;48.59;101179.34;10358760;28;20050;-74
2021/09/21 11:26:00;;;;;;;4.95;4.47;;;;;;;15.72;55.54;101196.09;10370733;28;20081;-73
2021/09/21 11:31:02;;;;;;;5.97;5.28;;;;;;;15.45;57.77;101195.22;10382025;28;20475;-74
2021/09/21 11:36:14;;;;;;;5.32;4.93;;;;;;;15.23;58.37;101203.00;10381040;28;20145;-75
2021/09/21 11:41:18;;;;;;;5.97;5.40;;;;;;;15.10;59.15;101201.66;10382388;28;20054;-73
2021/09/21 11:46:21;;;;;;;5.22;4.72;;;;;;;14.95;58.68;101197.69;10362926;28;20056;-73
2021/09/21 11:51:23;;;;;;;4.43;4.03;;;;;;;14.78;60.07;101200.00;10379739;28;20491;-73
2021/09/21 11:56:24;;;;;;;5.60;4.05;;;;;;;14.73;58.36;101208.06;10363755;28;20041;-76
2021/09/21 12:01:28;;;;;;;4.22;3.83;;;;;;;14.75;57.58;101208.03;10381327;28;20112;-75
2021/09/21 12:06:32;;;;;;;4.95;4.28;;;;;;;14.50;59.20;101208.75;10381839;28;20077;-75
2021/09/21 12:11:36;;;;;;;4.68;3.97;;;;;;;14.58;59.73;101212.06;10380442;28;20053;-74
2021/09/21 12:16:37;;;;;;;7.53;3.25;;;;;;;14.74;57.77;101201.88;10380639;28;20084;-75
2021/09/21 12:21:41;;;;;;;4.30;3.85;;;;;;;14.90;57.98;101202.28;10379386;28;20049;-73
2021/09/21 12:26:43;;;;;;;4.10;3.67;;;;;;;14.87;58.57;101197.97;10355089;28;20052;-74
2021/09/21 12:31:45;;;;;;;3.97;3.58;;;;;;;15.05;57.06;101204.47;10354564;28;20455;-74
2021/09/21 12:36:52;;;;;;;3.53;3.20;;;;;;;15.17;57.34;101202.31;10320855;28;20054;-74
2021/09/21 12:41:54;;;;;;;3.70;3.40;;;;;;;15.28;56.60;101194.91;10338352;28;20050;-73
2021/09/21 12:46:57;;;;;;;3.78;2.92;;;;;;;15.05;54.38;101199.16;10321751;28;20050;-75
2021/09/21 12:52:00;;;;;;;2.92;2.72;;;;;;;14.68;53.84;101186.19;10304239;28;20047;-74
2021/09/21 12:57:02;;;;;;;3.55;3.10;;;;;;;14.81;54.06;101173.44;10338268;28;20101;-74
2021/09/21 13:02:04;;;;;;;3.45;3.20;;;;;;;14.54;56.20;101178.66;10337239;28;20388;-74
2021/09/21 13:07:25;;;;;;;3.55;3.25;;;;;;;14.69;57.57;101179.09;10337962;28;20050;-74
2021/09/21 13:17:38;;;;;;;9.43;8.63;;;;;;;14.61;60.21;101153.75;10332730;28;20419;-68
2021/09/21 13:22:40;;;;;;;4.50;4.18;;;;;;;14.66;60.54;101150.09;10332793;28;20046;-68
2021/09/21 13:27:43;;;;;;;4.38;3.28;;;;;;;14.96;58.38;101162.34;10333884;28;20109;-68
2021/09/21 13:32:45;;;;;;;4.72;3.72;;;;;;;14.73;59.42;101168.38;10333203;28;20046;-68
2021/09/21 13:37:48;;;;;;;3.53;3.15;;;;;;;14.74;58.15;101156.00;10333608;28;20050;-69
2021/09/21 13:42:56;;;;;;;3.83;3.40;;;;;;;14.57;60.05;101170.63;10333356;28;20049;-69
2021/09/21 13:47:58;;;;;;;3.25;2.90;;;;;;;14.47;61.58;101170.91;10333181;28;20104;-68
2021/09/21 13:52:59;;;;;;;3.50;3.20;;;;;;;14.65;61.50;101157.16;10332953;28;20046;-68
2021/09/21 13:58:01;;;;;;;3.45;3.10;;;;;;;14.58;61.98;101159.13;10332830;28;20054;-68
2021/09/21 14:03:04;;;;;;;3.17;2.88;;;;;;;14.87;60.37;101152.06;10332741;28;20042;-68
2021/09/21 14:08:06;;;;;;;4.28;2.88;;;;;;;14.99;59.95;101151.66;10333160;28;20057;-67
2021/09/21 14:13:07;;;;;;;4.32;2.75;;;;;;;14.94;58.28;101143.00;10330853;28;20234;-67
2021/09/21 14:18:12;;;;;;;4.05;3.50;;;;;;;14.95;60.31;101133.28;10333444;28;20064;-68
2021/09/21 14:23:13;;;;;;;3.85;3.53;;;;;;;14.69;60.31;101147.34;10331862;28;20069;-68
2021/09/21 14:28:19;;;;;;;4.78;4.38;;;;;;;14.58;61.60;101132.69;10332545;28;20101;-68
2021/09/21 14:33:21;;;;;;;5.32;4.85;;;;;;;14.34;62.15;101130.72;10330979;28;20356;-68
2021/09/21 14:38:22;;;;;;;4.05;3.65;;;;;;;14.36;63.31;101142.16;10332820;28;20061;-68
2021/09/21 14:43:25;;;;;;;5.93;3.90;;;;;;;14.33;63.07;101147.50;10331973;28;20038;-68
2021/09/21 14:48:26;;;;;;;6.70;4.05;;;;;;;14.29;63.84;101151.16;10332509;28;20050;-68
2021/09/21 14:53:28;;;;;;;4.10;3.70;;;;;;;14.46;62.80;101151.53;10332100;28;20046;-68
2021/09/21 14:58:29;;;;;;;7.70;4.45;;;;;;;14.42;61.35;101154.31;10331993;28;20038;-68
2021/09/21 15:03:31;;;;;;;5.90;4.80;;;;;;;14.14;63.26;101145.41;10332463;28;20051;-68
2021/09/21 15:08:33;;;;;;;4.97;4.57;;;;;;;14.12;63.38;101149.00;10332111;28;20105;-68
2021/09/21 15:13:35;;;;;;;5.50;5.00;;;;;;;14.15;62.48;101162.13;10331763;28;20049;-68
2021/09/21 15:18:38;;;;;;;7.63;4.88;;;;;;;14.02;62.89;101161.63;10332046;28;20097;-70
2021/09/21 15:23:40;;;;;;;5.03;4.53;;;;;;;14.26;62.45;101157.44;10335217;28;20096;-68
2021/09/21 15:28:42;;;;;;;5.20;4.70;;;;;;;14.06;63.45;101168.56;10337855;28;20112;-69
2021/09/21 15:33:43;;;;;;;5.13;4.72;;;;;;;14.09;63.51;101163.19;10338193;28;20169;-67
2021/09/21 15:38:46;;;;;;;5.88;5.28;;;;;;;14.01;64.12;101154.59;10338502;28;20074;-68
2021/09/21 15:43:47;;;;;;;8.32;5.18;;;;;;;14.17;63.36;101152.41;10338672;28;20038;-67
2021/09/21 15:48:49;;;;;;;5.70;5.07;;;;;;;13.98;63.94;101153.81;10337943;28;20109;-68
2021/09/21 15:53:50;;;;;;;7.15;5.55;;;;;;;13.89;65.21;101154.94;10337351;28;20038;-69
2021/09/21 15:58:52;;;;;;;5.55;5.05;;;;;;;13.91;64.98;101155.78;10338424;28;20447;-68
2021/09/21 16:03:54;;;;;;;5.95;5.38;;;;;;;14.12;64.35;101154.28;10338008;28;20042;-68
2021/09/21 16:08:55;;;;;;;7.38;5.82;;;;;;;13.98;64.95;101157.31;10338095;28;20404;-68
2021/09/21 16:13:58;;;;;;;6.90;6.30;;;;;;;13.93;65.55;101167.16;10337008;28;20046;-68
2021/09/21 16:19:00;;;;;;;6.82;6.32;;;;;;;13.95;65.48;101160.06;10337678;28;20050;-68
2021/09/21 16:24:02;;;;;;;9.18;8.25;;;;;;;13.84;66.18;101156.84;10336847;28;20046;-69
2021/09/21 16:29:04;;;;;;;8.48;7.85;;;;;;;13.59;66.96;101164.53;10337149;28;20054;-70
2021/09/21 16:34:06;;;;;;;8.10;7.40;;;;;;;13.92;65.76;101160.16;10336770;28;20436;-70
2021/09/21 16:39:08;;;;;;;7.70;7.00;;;;;;;13.58;67.22;101165.47;10336577;28;20050;-70
2021/09/21 16:44:10;;;;;;;8.27;7.68;;;;;;;13.73;66.93;101173.00;10337556;28;20049;-70
2021/09/21 16:49:13;;;;;;;9.20;8.48;;;;;;;13.69;67.17;101168.69;10336350;28;20070;-69
2021/09/21 16:54:15;;;;;;;8.45;7.93;;;;;;;13.60;68.16;101171.59;10335573;28;20046;-69
2021/09/21 16:59:16;;;;;;;8.40;7.80;;;;;;;13.57;68.36;101180.44;10316300;28;20046;-69
2021/09/21 17:04:19;;;;;;;9.50;8.88;;;;;;;13.63;68.24;101179.41;10318069;28;20034;-69
2021/09/21 17:09:21;;;;;;;10.07;9.38;;;;;;;13.60;68.63;101179.50;10303371;28;20054;-69
2021/09/21 17:14:23;;;;;;;10.90;10.02;;;;;;;13.67;68.39;101182.84;10277296;28;20042;-69
2021/09/21 17:19:24;;;;;;;10.13;9.43;;;;;;;13.53;68.65;101180.56;10294944;28;20500;-69
2021/09/21 17:24:26;;;;;;;10.48;9.73;;;;;;;13.58;68.77;101179.53;10294484;28;20445;-69
2021/09/21 17:29:28;;;;;;;11.23;10.23;;;;;;;13.51;69.53;101177.13;10296376;28;20086;-70
2021/09/21 17:34:30;;;;;;;11.05;10.07;;;;;;;13.68;68.39;101182.84;10316246;28;20049;-69
2021/09/21 17:39:31;;;;;;;11.27;10.50;;;;;;;13.50;69.49;101183.28;10277110;28;20097;-69
2021/09/21 17:44:34;;;;;;;14.75;11.82;;;;;;;13.54;69.69;101167.31;10277512;28;20490;-70
2021/09/21 17:49:35;;;;;;;12.57;11.70;;;;;;;13.51;69.82;101172.69;10276178;28;20109;-70
2021/09/21 17:54:37;;;;;;;11.60;10.48;;;;;;;13.57;69.58;101171.66;10293844;28;20106;-70
2021/09/21 17:59:38;;;;;;;10.88;10.07;;;;;;;13.44;70.31;101167.59;10294369;28;20109;-70
2021/09/21 18:04:40;;;;;;;12.13;11.13;;;;;;;13.55;69.76;101169.06;10294880;28;20405;-69
2021/09/21 18:09:48;;;;;;;12.30;11.25;;;;;;;13.25;71.27;101172.47;10293514;28;20117;-69
2021/09/21 18:14:50;;;;;;;12.30;11.30;;;;;;;13.28;71.32;101169.75;10294349;28;20054;-70
2021/09/21 18:19:52;;;;;;;11.88;10.90;;;;;;;13.38;70.87;101176.56;10293509;28;20126;-69
2021/09/21 18:24:54;;;;;;;12.25;10.95;;;;;;;13.45;70.01;101170.19;10293538;28;20049;-69
2021/09/21 18:29:55;;;;;;;10.82;9.88;;;;;;;13.35;70.60;101172.19;10293848;28;20412;-69
2021/09/21 18:34:57;;;;;;;10.30;9.55;;;;;;;13.43;69.75;101169.38;10292845;28;20047;-70
2021/09/21 18:39:59;;;;;;;9.82;8.65;;;;;;;13.27;70.60;101175.94;10292444;28;20046;-70
2021/09/21 18:45:00;;;;;;;11.50;9.25;;;;;;;13.38;69.58;101173.91;10293227;28;20047;-70
2021/09/21 18:50:02;;;;;;;9.02;8.32;;;;;;;13.23;69.98;101159.31;10295753;28;20047;-70
2021/09/21 18:55:07;;;;;;;9.18;8.38;;;;;;;13.30;69.27;101154.75;10298968;28;20051;-70
2021/09/21 19:00:13;;;;;;;7.57;6.88;;;;;;;13.41;68.20;101157.09;10302837;28;20051;-70
2021/09/21 19:05:17;;;;;;;6.13;5.38;;;;;;;13.20;67.29;101153.22;10310582;28;20043;-70
2021/09/21 19:10:20;;;;;;;4.78;4.00;;;;;;;13.26;66.05;101153.09;10309695;28;20050;-70
2021/09/21 19:15:26;;;;;;;4.35;3.78;;;;;;;13.27;66.33;101152.19;10349342;23;20052;-73
2021/09/21 19:20:29;;;;;;;5.95;3.50;;;;;;;13.04;67.31;101140.38;10383258;28;20057;-73
2021/09/21 19:25:30;;;;;;;5.07;4.65;;;;;;;13.39;65.23;101143.94;10366203;28;20045;-73
2021/09/21 19:30:33;;;;;;;4.78;4.38;;;;;;;13.17;66.52;101148.00;10384675;28;20137;-74
2021/09/21 19:35:35;;;;;;;5.07;4.68;;;;;;;13.22;65.75;101147.00;10367314;28;20037;-73
2021/09/21 19:40:37;;;;;;;5.43;4.18;;;;;;;13.26;65.14;101143.38;10384196;28;20046;-73
2021/09/21 19:45:39;;;;;;;4.30;3.88;;;;;;;13.25;64.68;101146.09;10366460;28;20392;-74
2021/09/21 19:50:41;;;;;;;4.55;4.15;;;;;;;13.19;64.98;101141.75;10383923;28;20046;-73
2021/09/21 19:55:44;;;;;;;3.78;3.38;;;;;;;13.11;65.23;101151.66;10386007;28;20487;-76
2021/09/21 20:00:46;;;;;;;3.63;3.33;;;;;;;13.07;65.26;101148.22;10382578;28;20468;-74
2021/09/21 20:05:51;;;;;;;6.13;3.87;;;;;;;13.24;64.26;101154.91;10365841;28;20030;-74
2021/09/21 20:10:53;;;;;;;3.85;3.55;;;;;;;13.11;65.16;101136.69;10379931;28;20062;-74
2021/09/21 20:15:56;;;;;;;4.50;3.97;;;;;;;13.20;64.14;101132.97;10364441;28;20049;-73
2021/09/21 20:20:59;;;;;;;5.00;4.40;;;;;;;13.34;63.96;101137.94;10382300;28;20423;-74
2021/09/21 20:26:00;;;;;;;4.68;4.28;;;;;;;13.17;64.54;101135.66;10380987;28;20046;-75
2021/09/21 20:31:02;;;;;;;5.03;3.47;;;;;;;13.06;65.29;101141.22;10380745;28;20054;-73
2021/09/21 20:36:13;;;;;;;4.72;3.92;;;;;;;13.20;64.65;101132.97;10380926;28;20038;-73
2021/09/21 20:41:16;;;;;;;5.10;3.67;;;;;;;13.11;65.82;101127.91;10361677;28;20053;-74
2021/09/21 20:46:17;;;;;;;5.20;3.92;;;;;;;13.02;66.76;101121.09;10378833;28;20124;-74
2021/09/21 20:51:19;;;;;;;4.70;3.60;;;;;;;12.89;67.72;101127.56;10378065;28;20092;-73
2021/09/21 20:56:21;;;;;;;5.57;3.85;;;;;;;12.90;67.37;101128.44;10378338;28;20050;-74
2021/09/21 21:01:22;;;;;;;6.90;3.78;;;;;;;12.96;65.82;101123.00;10377553;28;20054;-73
2021/09/21 21:06:24;;;;;;;4.65;3.75;;;;;;;13.06;65.49;101104.28;10377982;28;20042;-74
2021/09/21 21:11:26;;;;;;;6.30;4.13;;;;;;;13.06;65.35;101111.31;10376616;28;20096;-73
2021/09/21 21:16:27;;;;;;;3.53;3.25;;;;;;;13.04;65.32;101103.41;10377023;28;20041;-73
2021/09/21 21:21:29;;;;;;;4.55;3.60;;;;;;;13.09;65.12;101109.44;10376271;28;20088;-73
2021/09/21 21:26:31;;;;;;;3.00;2.78;;;;;;;13.12;64.44;101106.75;10358958;28;20049;-74
2021/09/21 21:31:35;;;;;;;3.30;3.00;;;;;;;13.09;64.11;101098.88;10376922;28;20388;-73
2021/09/21 21:36:37;;;;;;;4.57;3.33;;;;;;;13.04;63.95;101095.50;10360089;28;20448;-73
2021/09/21 21:41:38;;;;;;;6.82;6.20;;;;;;;12.94;64.49;101096.66;10375832;28;20491;-74
2021/09/21 21:46:40;;;;;;;3.45;2.90;;;;;;;13.06;63.61;101090.22;10375506;28;20048;-73
2021/09/21 21:51:41;;;;;;;3.25;2.95;;;;;;;13.05;63.90;101084.03;10375598;28;20058;-73
2021/09/21 21:56:43;;;;;;;4.55;3.63;;;;;;;13.16;62.83;101077.63;10376550;28;20050;-72
2021/09/21 22:01:45;;;;;;;4.35;3.67;;;;;;;13.13;63.19;101073.28;10376496;28;20050;-73
2021/09/21 22:06:47;;;;;;;3.63;3.33;;;;;;;13.17;63.20;101061.75;10358452;28;20080;-74
2021/09/21 22:11:48;;;;;;;4.07;3.58;;;;;;;13.12;63.44;101067.16;10375712;28;20084;-73
2021/09/21 22:16:50;;;;;;;4.40;3.97;;;;;;;13.08;63.77;101054.06;10358162;28;20057;-74
2021/09/21 22:21:52;;;;;;;5.03;3.30;;;;;;;13.06;64.41;101054.13;10374292;28;20137;-74
2021/09/21 22:26:53;;;;;;;4.03;3.63;;;;;;;13.04;65.05;101052.41;10357446;28;20046;-73
2021/09/21 22:31:55;;;;;;;4.68;3.60;;;;;;;12.89;65.70;101053.69;10376212;28;20061;-73
2021/09/21 22:36:57;;;;;;;5.30;4.03;;;;;;;12.89;65.86;101058.94;10383975;28;20049;-72
2021/09/21 22:41:58;;;;;;;7.78;3.90;;;;;;;12.91;67.64;101067.69;10381869;28;20108;-73
2021/09/21 22:47:00;;;;;;;4.95;4.20;;;;;;;12.55;71.92;101096.69;10365716;28;20117;-72
2021/09/21 22:52:02;;;;;;;6.18;5.57;;;;;;;11.95;78.53;101068.13;10366526;28;20042;-72
2021/09/21 22:57:04;;;;;;;6.07;5.60;;;;;;;11.67;80.60;101062.53;10383716;28;20041;-73
2021/09/21 23:02:06;;;;;;;6.80;6.18;;;;;;;11.61;81.72;101049.50;10365673;28;20069;-73
2021/09/21 23:07:07;;;;;;;5.88;5.35;;;;;;;11.53;84.26;101059.28;10383359;28;20431;-74
2021/09/21 23:12:09;;;;;;;6.25;5.78;;;;;;;11.47;84.31;101060.28;10383306;28;20100;-73
2021/09/21 23:17:10;;;;;;;6.88;6.28;;;;;;;11.49;85.15;101047.94;10381516;28;20134;-73
2021/09/21 23:22:12;;;;;;;6.93;6.43;;;;;;;11.45;85.53;101046.28;10379095;28;20100;-72
2021/09/21 23:27:14;;;;;;;6.85;6.35;;;;;;;11.50;85.97;101038.28;10379974;28;20061;-73